sensor_id;sensor_type;location;lat;lon;timestamp;P1;P2;P0
65012;PMS5003;51715;39.432;-77.518;2023-06-10T00:00:32;21;20;
65012;PMS5003;51715;39.432;-77.518;2023-06-10T00:03:10;19;19;
65012;PMS5003;51715;39.432;-77.518;2023-06-10T00:05:48;23;20;
65012;PMS5003;51715;39.432;-77.518;2023-06-10T00:08:27;22;21;
65012;PMS5003;51715;39.432;-77.518;2023-06-10T00:11:05;22;22;
65012;PMS5003;51715;39.432;-77.518;2023-06-10T00:13:44;22;20;
65012;PMS5003;51715;39.432;-77.518;2023-06-10T00:16:22;25;24;
65012;PMS5003;51715;39.432;-77.518;2023-06-10T00:19:01;23;20;
65012;PMS5003;51715;39.432;-77.518;2023-06-10T00:21:39;27;26;
65012;PMS5003;51715;39.432;-77.518;2023-06-10T00:24:17;28;28;
65012;PMS5003;51715;39.432;-77.518;2023-06-10T00:26:56;21;19;
65012;PMS5003;51715;39.432;-77.518;2023-06-10T00:29:34;25;23;
65012;PMS5003;51715;39.432;-77.518;2023-06-10T00:32:13;18;18;
65012;PMS5003;51715;39.432;-77.518;2023-06-10T00:34:51;28;24;
65012;PMS5003;51715;39.432;-77.518;2023-06-10T00:37:28;25;24;
65012;PMS5003;51715;39.432;-77.518;2023-06-10T00:40:07;23;23;
65012;PMS5003;51715;39.432;-77.518;2023-06-10T00:42:45;23;23;
65012;PMS5003;51715;39.432;-77.518;2023-06-10T00:45:23;22;21;
65012;PMS5003;51715;39.432;-77.518;2023-06-10T00:48:01;24;22;
65012;PMS5003;51715;39.432;-77.518;2023-06-10T00:50:40;24;23;
65012;PMS5003;51715;39.432;-77.518;2023-06-10T00:53:18;23;22;
65012;PMS5003;51715;39.432;-77.518;2023-06-10T00:55:57;29;28;
65012;PMS5003;51715;39.432;-77.518;2023-06-10T00:58:36;28;23;
65012;PMS5003;51715;39.432;-77.518;2023-06-10T01:01:14;23;23;
65012;PMS5003;51715;39.432;-77.518;2023-06-10T01:03:53;23;23;
65012;PMS5003;51715;39.432;-77.518;2023-06-10T01:06:33;29;27;
65012;PMS5003;51715;39.432;-77.518;2023-06-10T01:09:25;22;19;
65012;PMS5003;51715;39.432;-77.518;2023-06-10T01:12:19;26;24;
65012;PMS5003;51715;39.432;-77.518;2023-06-10T01:15:04;21;20;
65012;PMS5003;51715;39.432;-77.518;2023-06-10T01:17:55;24;24;
65012;PMS5003;51715;39.432;-77.518;2023-06-10T01:20:35;24;23;
65012;PMS5003;51715;39.432;-77.518;2023-06-10T01:23:14;27;26;
65012;PMS5003;51715;39.432;-77.518;2023-06-10T01:25:53;26;23;
65012;PMS5003;51715;39.432;-77.518;2023-06-10T01:28:38;22;21;
65012;PMS5003;51715;39.432;-77.518;2023-06-10T01:31:23;23;22;
65012;PMS5003;51715;39.432;-77.518;2023-06-10T01:34:10;26;26;
65012;PMS5003;51715;39.432;-77.518;2023-06-10T01:36:51;28;28;
65012;PMS5003;51715;39.432;-77.518;2023-06-10T01:39:30;25;25;
65012;PMS5003;51715;39.432;-77.518;2023-06-10T01:42:11;28;27;
65012;PMS5003;51715;39.432;-77.518;2023-06-10T01:44:50;26;21;
65012;PMS5003;51715;39.432;-77.518;2023-06-10T01:47:28;26;24;
65012;PMS5003;51715;39.432;-77.518;2023-06-10T01:50:07;24;23;
65012;PMS5003;51715;39.432;-77.518;2023-06-10T01:52:45;28;25;
65012;PMS5003;51715;39.432;-77.518;2023-06-10T01:55:23;32;26;
65012;PMS5003;51715;39.432;-77.518;2023-06-10T01:58:01;29;24;
65012;PMS5003;51715;39.432;-77.518;2023-06-10T02:00:40;31;31;
65012;PMS5003;51715;39.432;-77.518;2023-06-10T02:03:19;30;29;
65012;PMS5003;51715;39.432;-77.518;2023-06-10T02:05:57;30;30;
65012;PMS5003;51715;39.432;-77.518;2023-06-10T02:08:36;27;27;
65012;PMS5003;51715;39.432;-77.518;2023-06-10T02:11:14;32;31;
65012;PMS5003;51715;39.432;-77.518;2023-06-10T02:13:53;32;31;
65012;PMS5003;51715;39.432;-77.518;2023-06-10T02:16:31;30;28;
65012;PMS5003;51715;39.432;-77.518;2023-06-10T02:19:09;34;32;
65012;PMS5003;51715;39.432;-77.518;2023-06-10T02:21:48;37;35;
65012;PMS5003;51715;39.432;-77.518;2023-06-10T02:24:25;37;34;
65012;PMS5003;51715;39.432;-77.518;2023-06-10T02:27:04;34;32;
65012;PMS5003;51715;39.432;-77.518;2023-06-10T02:29:43;34;33;
65012;PMS5003;51715;39.432;-77.518;2023-06-10T02:32:21;37;36;
65012;PMS5003;51715;39.432;-77.518;2023-06-10T02:35:01;29;29;
65012;PMS5003;51715;39.432;-77.518;2023-06-10T02:37:39;34;34;
65012;PMS5003;51715;39.432;-77.518;2023-06-10T02:40:17;35;34;
65012;PMS5003;51715;39.432;-77.518;2023-06-10T02:42:56;34;31;
65012;PMS5003;51715;39.432;-77.518;2023-06-10T02:45:34;34;31;
65012;PMS5003;51715;39.432;-77.518;2023-06-10T02:48:12;27;27;
65012;PMS5003;51715;39.432;-77.518;2023-06-10T02:50:50;33;28;
65012;PMS5003;51715;39.432;-77.518;2023-06-10T02:53:29;29;27;
65012;PMS5003;51715;39.432;-77.518;2023-06-10T02:56:08;31;29;
65012;PMS5003;51715;39.432;-77.518;2023-06-10T02:58:47;32;32;
65012;PMS5003;51715;39.432;-77.518;2023-06-10T03:01:25;33;31;
65012;PMS5003;51715;39.432;-77.518;2023-06-10T03:04:04;37;37;
65012;PMS5003;51715;39.432;-77.518;2023-06-10T03:06:42;40;39;
65012;PMS5003;51715;39.432;-77.518;2023-06-10T03:09:20;38;37;
65012;PMS5003;51715;39.432;-77.518;2023-06-10T03:11:58;42;38;
65012;PMS5003;51715;39.432;-77.518;2023-06-10T03:14:37;33;32;
65012;PMS5003;51715;39.432;-77.518;2023-06-10T03:17:15;38;32;
65012;PMS5003;51715;39.432;-77.518;2023-06-10T03:19:54;29;28;
65012;PMS5003;51715;39.432;-77.518;2023-06-10T03:22:33;30;27;
65012;PMS5003;51715;39.432;-77.518;2023-06-10T03:25:11;34;32;
65012;PMS5003;51715;39.432;-77.518;2023-06-10T03:27:49;28;27;
65012;PMS5003;51715;39.432;-77.518;2023-06-10T03:30:27;27;27;
65012;PMS5003;51715;39.432;-77.518;2023-06-10T03:33:05;30;28;
65012;PMS5003;51715;39.432;-77.518;2023-06-10T03:35:43;32;28;
65012;PMS5003;51715;39.432;-77.518;2023-06-10T03:38:22;34;34;
65012;PMS5003;51715;39.432;-77.518;2023-06-10T03:41:04;32;31;
65012;PMS5003;51715;39.432;-77.518;2023-06-10T03:43:42;34;31;
65012;PMS5003;51715;39.432;-77.518;2023-06-10T03:46:20;27;26;
65012;PMS5003;51715;39.432;-77.518;2023-06-10T03:48:59;26;25;
65012;PMS5003;51715;39.432;-77.518;2023-06-10T03:51:37;30;28;
65012;PMS5003;51715;39.432;-77.518;2023-06-10T03:54:15;29;27;
65012;PMS5003;51715;39.432;-77.518;2023-06-10T03:56:53;38;33;
65012;PMS5003;51715;39.432;-77.518;2023-06-10T03:59:33;25;25;
65012;PMS5003;51715;39.432;-77.518;2023-06-10T04:03:58;28;26;
65012;PMS5003;51715;39.432;-77.518;2023-06-10T04:06:26;29;28;
65012;PMS5003;51715;39.432;-77.518;2023-06-10T04:08:54;29;29;
65012;PMS5003;51715;39.432;-77.518;2023-06-10T04:11:23;27;27;
65012;PMS5003;51715;39.432;-77.518;2023-06-10T04:13:51;30;28;
65012;PMS5003;51715;39.432;-77.518;2023-06-10T04:16:20;23;23;
65012;PMS5003;51715;39.432;-77.518;2023-06-10T04:18:48;24;23;
65012;PMS5003;51715;39.432;-77.518;2023-06-10T04:21:16;33;30;
65012;PMS5003;51715;39.432;-77.518;2023-06-10T04:23:44;23;22;
65012;PMS5003;51715;39.432;-77.518;2023-06-10T04:26:12;29;28;
65012;PMS5003;51715;39.432;-77.518;2023-06-10T04:28:42;26;26;
65012;PMS5003;51715;39.432;-77.518;2023-06-10T04:31:10;24;24;
65012;PMS5003;51715;39.432;-77.518;2023-06-10T04:33:38;28;26;
65012;PMS5003;51715;39.432;-77.518;2023-06-10T04:36:06;27;27;
65012;PMS5003;51715;39.432;-77.518;2023-06-10T04:38:34;25;25;
65012;PMS5003;51715;39.432;-77.518;2023-06-10T04:41:02;27;26;
65012;PMS5003;51715;39.432;-77.518;2023-06-10T04:43:31;32;31;
65012;PMS5003;51715;39.432;-77.518;2023-06-10T04:45:59;35;33;
65012;PMS5003;51715;39.432;-77.518;2023-06-10T04:48:27;31;30;
65012;PMS5003;51715;39.432;-77.518;2023-06-10T04:50:55;27;27;
65012;PMS5003;51715;39.432;-77.518;2023-06-10T04:53:23;31;30;
65012;PMS5003;51715;39.432;-77.518;2023-06-10T04:55:52;34;32;
65012;PMS5003;51715;39.432;-77.518;2023-06-10T04:58:20;32;30;
65012;PMS5003;51715;39.432;-77.518;2023-06-10T05:00:48;35;32;
65012;PMS5003;51715;39.432;-77.518;2023-06-10T05:03:17;34;32;
65012;PMS5003;51715;39.432;-77.518;2023-06-10T05:05:45;34;32;
65012;PMS5003;51715;39.432;-77.518;2023-06-10T05:08:13;41;39;
65012;PMS5003;51715;39.432;-77.518;2023-06-10T05:10:41;35;35;
65012;PMS5003;51715;39.432;-77.518;2023-06-10T05:13:09;33;33;
65012;PMS5003;51715;39.432;-77.518;2023-06-10T05:15:37;35;32;
65012;PMS5003;51715;39.432;-77.518;2023-06-10T05:18:05;32;31;
65012;PMS5003;51715;39.432;-77.518;2023-06-10T05:20:34;37;34;
65012;PMS5003;51715;39.432;-77.518;2023-06-10T05:23:02;36;29;
65012;PMS5003;51715;39.432;-77.518;2023-06-10T05:25:30;31;30;
65012;PMS5003;51715;39.432;-77.518;2023-06-10T05:27:59;31;29;
65012;PMS5003;51715;39.432;-77.518;2023-06-10T05:30:28;30;27;
65012;PMS5003;51715;39.432;-77.518;2023-06-10T05:32:56;31;31;
65012;PMS5003;51715;39.432;-77.518;2023-06-10T05:35:24;33;32;
65012;PMS5003;51715;39.432;-77.518;2023-06-10T05:37:53;29;28;
65012;PMS5003;51715;39.432;-77.518;2023-06-10T05:40:21;30;30;
65012;PMS5003;51715;39.432;-77.518;2023-06-10T05:42:50;31;31;
65012;PMS5003;51715;39.432;-77.518;2023-06-10T05:45:18;28;28;
65012;PMS5003;51715;39.432;-77.518;2023-06-10T05:47:46;29;28;
65012;PMS5003;51715;39.432;-77.518;2023-06-10T05:50:14;26;25;
65012;PMS5003;51715;39.432;-77.518;2023-06-10T05:52:42;23;23;
65012;PMS5003;51715;39.432;-77.518;2023-06-10T05:55:10;28;26;
65012;PMS5003;51715;39.432;-77.518;2023-06-10T05:57:41;33;30;
65012;PMS5003;51715;39.432;-77.518;2023-06-10T06:00:09;35;32;
65012;PMS5003;51715;39.432;-77.518;2023-06-10T06:02:38;33;29;
65012;PMS5003;51715;39.432;-77.518;2023-06-10T06:05:07;32;30;
65012;PMS5003;51715;39.432;-77.518;2023-06-10T06:07:35;30;30;
65012;PMS5003;51715;39.432;-77.518;2023-06-10T06:10:04;31;29;
65012;PMS5003;51715;39.432;-77.518;2023-06-10T06:12:32;23;23;
65012;PMS5003;51715;39.432;-77.518;2023-06-10T06:15:06;26;25;
65012;PMS5003;51715;39.432;-77.518;2023-06-10T06:17:36;30;24;
65012;PMS5003;51715;39.432;-77.518;2023-06-10T06:20:05;35;31;
65012;PMS5003;51715;39.432;-77.518;2023-06-10T06:22:34;27;27;
65012;PMS5003;51715;39.432;-77.518;2023-06-10T06:25:02;29;28;
65012;PMS5003;51715;39.432;-77.518;2023-06-10T06:27:30;28;28;
65012;PMS5003;51715;39.432;-77.518;2023-06-10T06:29:59;30;27;
65012;PMS5003;51715;39.432;-77.518;2023-06-10T06:32:27;30;28;
65012;PMS5003;51715;39.432;-77.518;2023-06-10T06:34:55;30;29;
65012;PMS5003;51715;39.432;-77.518;2023-06-10T06:37:23;29;29;
65012;PMS5003;51715;39.432;-77.518;2023-06-10T06:39:52;27;26;
65012;PMS5003;51715;39.432;-77.518;2023-06-10T06:42:21;29;29;
65012;PMS5003;51715;39.432;-77.518;2023-06-10T06:44:49;30;27;
65012;PMS5003;51715;39.432;-77.518;2023-06-10T06:47:17;27;26;
65012;PMS5003;51715;39.432;-77.518;2023-06-10T06:49:45;33;28;
65012;PMS5003;51715;39.432;-77.518;2023-06-10T06:52:14;27;27;
65012;PMS5003;51715;39.432;-77.518;2023-06-10T06:54:43;28;27;
65012;PMS5003;51715;39.432;-77.518;2023-06-10T06:57:11;30;28;
65012;PMS5003;51715;39.432;-77.518;2023-06-10T06:59:39;24;23;
65012;PMS5003;51715;39.432;-77.518;2023-06-10T07:02:07;28;28;
65012;PMS5003;51715;39.432;-77.518;2023-06-10T07:04:36;27;26;
65012;PMS5003;51715;39.432;-77.518;2023-06-10T07:07:04;25;24;
65012;PMS5003;51715;39.432;-77.518;2023-06-10T07:09:34;30;26;
65012;PMS5003;51715;39.432;-77.518;2023-06-10T07:12:02;29;26;
65012;PMS5003;51715;39.432;-77.518;2023-06-10T07:14:30;32;29;
65012;PMS5003;51715;39.432;-77.518;2023-06-10T07:16:58;26;24;
65012;PMS5003;51715;39.432;-77.518;2023-06-10T07:19:26;28;27;
65012;PMS5003;51715;39.432;-77.518;2023-06-10T07:21:55;27;27;
65012;PMS5003;51715;39.432;-77.518;2023-06-10T07:24:23;31;24;
65012;PMS5003;51715;39.432;-77.518;2023-06-10T07:26:51;30;27;
65012;PMS5003;51715;39.432;-77.518;2023-06-10T07:29:19;27;27;
65012;PMS5003;51715;39.432;-77.518;2023-06-10T07:31:47;30;29;
65012;PMS5003;51715;39.432;-77.518;2023-06-10T07:34:15;30;28;
65012;PMS5003;51715;39.432;-77.518;2023-06-10T07:36:43;34;31;
65012;PMS5003;51715;39.432;-77.518;2023-06-10T07:39:12;26;25;
65012;PMS5003;51715;39.432;-77.518;2023-06-10T07:41:40;27;27;
65012;PMS5003;51715;39.432;-77.518;2023-06-10T07:44:08;28;28;
65012;PMS5003;51715;39.432;-77.518;2023-06-10T07:46:36;26;25;
65012;PMS5003;51715;39.432;-77.518;2023-06-10T07:49:04;25;23;
65012;PMS5003;51715;39.432;-77.518;2023-06-10T07:51:32;27;24;
65012;PMS5003;51715;39.432;-77.518;2023-06-10T07:54:00;24;24;
65012;PMS5003;51715;39.432;-77.518;2023-06-10T07:56:27;22;21;
65012;PMS5003;51715;39.432;-77.518;2023-06-10T07:58:56;26;25;
65012;PMS5003;51715;39.432;-77.518;2023-06-10T08:01:25;33;31;
65012;PMS5003;51715;39.432;-77.518;2023-06-10T08:03:53;21;21;
65012;PMS5003;51715;39.432;-77.518;2023-06-10T08:06:21;22;22;
65012;PMS5003;51715;39.432;-77.518;2023-06-10T08:08:50;27;27;
65012;PMS5003;51715;39.432;-77.518;2023-06-10T08:11:19;26;24;
65012;PMS5003;51715;39.432;-77.518;2023-06-10T08:13:46;24;23;
65012;PMS5003;51715;39.432;-77.518;2023-06-10T08:16:14;25;25;
65012;PMS5003;51715;39.432;-77.518;2023-06-10T08:18:43;33;30;
65012;PMS5003;51715;39.432;-77.518;2023-06-10T08:21:12;29;28;
65012;PMS5003;51715;39.432;-77.518;2023-06-10T08:23:40;25;24;
65012;PMS5003;51715;39.432;-77.518;2023-06-10T08:26:08;24;22;
65012;PMS5003;51715;39.432;-77.518;2023-06-10T08:28:36;31;28;
65012;PMS5003;51715;39.432;-77.518;2023-06-10T08:31:05;29;25;
65012;PMS5003;51715;39.432;-77.518;2023-06-10T08:33:33;29;26;
65012;PMS5003;51715;39.432;-77.518;2023-06-10T08:36:02;26;24;
65012;PMS5003;51715;39.432;-77.518;2023-06-10T08:38:31;30;29;
65012;PMS5003;51715;39.432;-77.518;2023-06-10T08:40:59;26;26;
65012;PMS5003;51715;39.432;-77.518;2023-06-10T08:43:32;26;26;
65012;PMS5003;51715;39.432;-77.518;2023-06-10T08:46:04;29;25;
65012;PMS5003;51715;39.432;-77.518;2023-06-10T08:48:37;35;31;
65012;PMS5003;51715;39.432;-77.518;2023-06-10T08:51:09;26;25;
65012;PMS5003;51715;39.432;-77.518;2023-06-10T08:53:41;25;25;
65012;PMS5003;51715;39.432;-77.518;2023-06-10T08:56:15;34;33;
65012;PMS5003;51715;39.432;-77.518;2023-06-10T08:58:44;25;23;
65012;PMS5003;51715;39.432;-77.518;2023-06-10T09:01:12;31;29;
65012;PMS5003;51715;39.432;-77.518;2023-06-10T09:03:41;27;27;
65012;PMS5003;51715;39.432;-77.518;2023-06-10T09:06:10;30;27;
65012;PMS5003;51715;39.432;-77.518;2023-06-10T09:08:40;24;24;
65012;PMS5003;51715;39.432;-77.518;2023-06-10T09:11:09;29;25;
65012;PMS5003;51715;39.432;-77.518;2023-06-10T09:13:37;28;27;
65012;PMS5003;51715;39.432;-77.518;2023-06-10T09:16:06;29;29;
65012;PMS5003;51715;39.432;-77.518;2023-06-10T09:18:34;28;27;
65012;PMS5003;51715;39.432;-77.518;2023-06-10T09:21:03;26;25;
65012;PMS5003;51715;39.432;-77.518;2023-06-10T09:23:31;31;26;
65012;PMS5003;51715;39.432;-77.518;2023-06-10T09:26:00;32;28;
65012;PMS5003;51715;39.432;-77.518;2023-06-10T09:28:28;27;24;
65012;PMS5003;51715;39.432;-77.518;2023-06-10T09:31:04;33;29;
65012;PMS5003;51715;39.432;-77.518;2023-06-10T09:33:33;32;31;
65012;PMS5003;51715;39.432;-77.518;2023-06-10T09:36:05;27;25;
65012;PMS5003;51715;39.432;-77.518;2023-06-10T09:38:34;24;23;
65012;PMS5003;51715;39.432;-77.518;2023-06-10T09:41:03;31;27;
65012;PMS5003;51715;39.432;-77.518;2023-06-10T09:43:38;31;29;
65012;PMS5003;51715;39.432;-77.518;2023-06-10T09:46:13;36;31;
65012;PMS5003;51715;39.432;-77.518;2023-06-10T09:48:43;27;27;
65012;PMS5003;51715;39.432;-77.518;2023-06-10T09:51:12;25;24;
65012;PMS5003;51715;39.432;-77.518;2023-06-10T09:53:41;33;29;
65012;PMS5003;51715;39.432;-77.518;2023-06-10T09:56:10;26;25;
65012;PMS5003;51715;39.432;-77.518;2023-06-10T09:58:38;32;30;
65012;PMS5003;51715;39.432;-77.518;2023-06-10T10:01:08;31;30;
65012;PMS5003;51715;39.432;-77.518;2023-06-10T10:03:45;30;30;
65012;PMS5003;51715;39.432;-77.518;2023-06-10T10:06:14;32;29;
65012;PMS5003;51715;39.432;-77.518;2023-06-10T10:08:43;32;28;
65012;PMS5003;51715;39.432;-77.518;2023-06-10T10:11:11;28;27;
65012;PMS5003;51715;39.432;-77.518;2023-06-10T10:13:41;27;26;
65012;PMS5003;51715;39.432;-77.518;2023-06-10T10:16:12;34;31;
65012;PMS5003;51715;39.432;-77.518;2023-06-10T10:18:45;32;31;
65012;PMS5003;51715;39.432;-77.518;2023-06-10T10:21:17;31;27;
65012;PMS5003;51715;39.432;-77.518;2023-06-10T10:23:52;31;28;
65012;PMS5003;51715;39.432;-77.518;2023-06-10T10:26:28;30;30;
65012;PMS5003;51715;39.432;-77.518;2023-06-10T10:29:09;30;28;
65012;PMS5003;51715;39.432;-77.518;2023-06-10T10:31:43;26;26;
65012;PMS5003;51715;39.432;-77.518;2023-06-10T10:34:15;32;30;
65012;PMS5003;51715;39.432;-77.518;2023-06-10T10:36:48;28;28;
65012;PMS5003;51715;39.432;-77.518;2023-06-10T10:39:17;32;30;
65012;PMS5003;51715;39.432;-77.518;2023-06-10T10:41:46;32;30;
65012;PMS5003;51715;39.432;-77.518;2023-06-10T10:44:15;27;26;
65012;PMS5003;51715;39.432;-77.518;2023-06-10T10:46:44;30;30;
65012;PMS5003;51715;39.432;-77.518;2023-06-10T10:49:17;33;31;
65012;PMS5003;51715;39.432;-77.518;2023-06-10T10:51:54;30;28;
65012;PMS5003;51715;39.432;-77.518;2023-06-10T10:54:31;33;31;
65012;PMS5003;51715;39.432;-77.518;2023-06-10T10:57:16;34;33;
65012;PMS5003;51715;39.432;-77.518;2023-06-10T10:59:50;30;27;
65012;PMS5003;51715;39.432;-77.518;2023-06-10T11:02:32;36;33;
65012;PMS5003;51715;39.432;-77.518;2023-06-10T11:05:01;31;27;
65012;PMS5003;51715;39.432;-77.518;2023-06-10T11:07:29;28;27;
65012;PMS5003;51715;39.432;-77.518;2023-06-10T11:09:59;37;35;
65012;PMS5003;51715;39.432;-77.518;2023-06-10T11:12:40;35;32;
65012;PMS5003;51715;39.432;-77.518;2023-06-10T11:15:18;32;27;
65012;PMS5003;51715;39.432;-77.518;2023-06-10T11:18:06;34;30;
65012;PMS5003;51715;39.432;-77.518;2023-06-10T11:20:53;34;28;
65012;PMS5003;51715;39.432;-77.518;2023-06-10T11:23:31;35;33;
65012;PMS5003;51715;39.432;-77.518;2023-06-10T11:26:19;36;33;
65012;PMS5003;51715;39.432;-77.518;2023-06-10T11:29:06;36;33;
65012;PMS5003;51715;39.432;-77.518;2023-06-10T11:31:39;28;27;
65012;PMS5003;51715;39.432;-77.518;2023-06-10T11:34:10;36;34;
65012;PMS5003;51715;39.432;-77.518;2023-06-10T11:36:39;32;30;
65012;PMS5003;51715;39.432;-77.518;2023-06-10T11:39:09;35;31;
65012;PMS5003;51715;39.432;-77.518;2023-06-10T11:41:38;33;32;
65012;PMS5003;51715;39.432;-77.518;2023-06-10T11:44:08;32;32;
65012;PMS5003;51715;39.432;-77.518;2023-06-10T11:46:38;36;33;
65012;PMS5003;51715;39.432;-77.518;2023-06-10T11:49:06;35;35;
65012;PMS5003;51715;39.432;-77.518;2023-06-10T11:51:35;33;33;
65012;PMS5003;51715;39.432;-77.518;2023-06-10T11:54:05;31;31;
65012;PMS5003;51715;39.432;-77.518;2023-06-10T11:56:35;30;29;
65012;PMS5003;51715;39.432;-77.518;2023-06-10T11:59:04;35;34;
65012;PMS5003;51715;39.432;-77.518;2023-06-10T12:01:33;32;29;
65012;PMS5003;51715;39.432;-77.518;2023-06-10T12:04:03;34;31;
65012;PMS5003;51715;39.432;-77.518;2023-06-10T12:06:41;34;34;
65012;PMS5003;51715;39.432;-77.518;2023-06-10T12:09:13;36;35;
65012;PMS5003;51715;39.432;-77.518;2023-06-10T12:11:42;34;34;
65012;PMS5003;51715;39.432;-77.518;2023-06-10T12:14:11;33;30;
65012;PMS5003;51715;39.432;-77.518;2023-06-10T12:16:40;34;33;
65012;PMS5003;51715;39.432;-77.518;2023-06-10T12:19:14;34;34;
65012;PMS5003;51715;39.432;-77.518;2023-06-10T12:21:43;32;29;
65012;PMS5003;51715;39.432;-77.518;2023-06-10T12:24:13;35;32;
65012;PMS5003;51715;39.432;-77.518;2023-06-10T12:26:41;35;33;
65012;PMS5003;51715;39.432;-77.518;2023-06-10T12:29:18;29;29;
65012;PMS5003;51715;39.432;-77.518;2023-06-10T12:31:55;37;34;
65012;PMS5003;51715;39.432;-77.518;2023-06-10T12:34:35;36;33;
65012;PMS5003;51715;39.432;-77.518;2023-06-10T12:37:05;32;28;
65012;PMS5003;51715;39.432;-77.518;2023-06-10T12:39:38;33;30;
65012;PMS5003;51715;39.432;-77.518;2023-06-10T12:42:08;33;31;
65012;PMS5003;51715;39.432;-77.518;2023-06-10T12:44:39;37;34;
65012;PMS5003;51715;39.432;-77.518;2023-06-10T12:47:08;31;31;
65012;PMS5003;51715;39.432;-77.518;2023-06-10T12:49:38;32;30;
65012;PMS5003;51715;39.432;-77.518;2023-06-10T12:52:07;31;27;
65012;PMS5003;51715;39.432;-77.518;2023-06-10T12:54:35;32;32;
65012;PMS5003;51715;39.432;-77.518;2023-06-10T12:57:04;37;33;
65012;PMS5003;51715;39.432;-77.518;2023-06-10T12:59:32;31;30;
65012;PMS5003;51715;39.432;-77.518;2023-06-10T13:02:00;27;27;
65012;PMS5003;51715;39.432;-77.518;2023-06-10T13:04:28;35;34;
65012;PMS5003;51715;39.432;-77.518;2023-06-10T13:06:57;33;31;
65012;PMS5003;51715;39.432;-77.518;2023-06-10T13:09:25;33;32;
65012;PMS5003;51715;39.432;-77.518;2023-06-10T13:11:53;30;27;
65012;PMS5003;51715;39.432;-77.518;2023-06-10T13:14:22;29;29;
65012;PMS5003;51715;39.432;-77.518;2023-06-10T13:16:50;32;30;
65012;PMS5003;51715;39.432;-77.518;2023-06-10T13:19:18;29;29;
65012;PMS5003;51715;39.432;-77.518;2023-06-10T13:21:46;38;36;
65012;PMS5003;51715;39.432;-77.518;2023-06-10T13:24:14;33;31;
65012;PMS5003;51715;39.432;-77.518;2023-06-10T13:26:43;32;32;
65012;PMS5003;51715;39.432;-77.518;2023-06-10T13:29:12;36;33;
65012;PMS5003;51715;39.432;-77.518;2023-06-10T13:31:40;29;28;
65012;PMS5003;51715;39.432;-77.518;2023-06-10T13:34:08;35;33;
65012;PMS5003;51715;39.432;-77.518;2023-06-10T13:36:36;30;30;
65012;PMS5003;51715;39.432;-77.518;2023-06-10T13:39:05;38;37;
65012;PMS5003;51715;39.432;-77.518;2023-06-10T13:41:33;33;32;
65012;PMS5003;51715;39.432;-77.518;2023-06-10T13:44:01;30;29;
65012;PMS5003;51715;39.432;-77.518;2023-06-10T13:46:30;38;33;
65012;PMS5003;51715;39.432;-77.518;2023-06-10T13:48:58;28;28;
65012;PMS5003;51715;39.432;-77.518;2023-06-10T13:51:26;27;27;
65012;PMS5003;51715;39.432;-77.518;2023-06-10T13:53:54;29;28;
65012;PMS5003;51715;39.432;-77.518;2023-06-10T13:56:22;35;33;
65012;PMS5003;51715;39.432;-77.518;2023-06-10T13:58:51;34;32;
65012;PMS5003;51715;39.432;-77.518;2023-06-10T14:01:19;36;36;
65012;PMS5003;51715;39.432;-77.518;2023-06-10T14:03:48;34;33;
65012;PMS5003;51715;39.432;-77.518;2023-06-10T14:06:16;40;35;
65012;PMS5003;51715;39.432;-77.518;2023-06-10T14:08:45;31;29;
65012;PMS5003;51715;39.432;-77.518;2023-06-10T14:11:12;32;32;
65012;PMS5003;51715;39.432;-77.518;2023-06-10T14:13:40;30;29;
65012;PMS5003;51715;39.432;-77.518;2023-06-10T14:16:09;34;32;
65012;PMS5003;51715;39.432;-77.518;2023-06-10T14:18:37;33;32;
65012;PMS5003;51715;39.432;-77.518;2023-06-10T14:21:05;31;31;
65012;PMS5003;51715;39.432;-77.518;2023-06-10T14:23:33;35;33;
65012;PMS5003;51715;39.432;-77.518;2023-06-10T14:26:02;28;28;
65012;PMS5003;51715;39.432;-77.518;2023-06-10T14:28:30;32;28;
65012;PMS5003;51715;39.432;-77.518;2023-06-10T14:30:57;26;26;
65012;PMS5003;51715;39.432;-77.518;2023-06-10T14:33:26;38;35;
65012;PMS5003;51715;39.432;-77.518;2023-06-10T14:35:54;34;34;
65012;PMS5003;51715;39.432;-77.518;2023-06-10T14:38:23;37;34;
65012;PMS5003;51715;39.432;-77.518;2023-06-10T14:40:51;33;33;
65012;PMS5003;51715;39.432;-77.518;2023-06-10T14:43:19;27;27;
65012;PMS5003;51715;39.432;-77.518;2023-06-10T14:45:47;34;32;
65012;PMS5003;51715;39.432;-77.518;2023-06-10T14:48:16;33;30;
65012;PMS5003;51715;39.432;-77.518;2023-06-10T14:50:44;35;33;
65012;PMS5003;51715;39.432;-77.518;2023-06-10T14:53:12;37;34;
65012;PMS5003;51715;39.432;-77.518;2023-06-10T14:55:41;30;28;
65012;PMS5003;51715;39.432;-77.518;2023-06-10T14:58:09;34;31;
65012;PMS5003;51715;39.432;-77.518;2023-06-10T15:00:37;31;27;
65012;PMS5003;51715;39.432;-77.518;2023-06-10T15:03:05;32;28;
65012;PMS5003;51715;39.432;-77.518;2023-06-10T15:05:33;29;28;
65012;PMS5003;51715;39.432;-77.518;2023-06-10T15:08:01;29;29;
65012;PMS5003;51715;39.432;-77.518;2023-06-10T15:10:30;26;26;
65012;PMS5003;51715;39.432;-77.518;2023-06-10T15:12:57;35;33;
65012;PMS5003;51715;39.432;-77.518;2023-06-10T15:15:25;36;34;
65012;PMS5003;51715;39.432;-77.518;2023-06-10T15:17:54;31;30;
65012;PMS5003;51715;39.432;-77.518;2023-06-10T15:20:22;32;30;
65012;PMS5003;51715;39.432;-77.518;2023-06-10T15:22:49;31;30;
65012;PMS5003;51715;39.432;-77.518;2023-06-10T15:25:18;35;33;
65012;PMS5003;51715;39.432;-77.518;2023-06-10T15:27:46;37;35;
65012;PMS5003;51715;39.432;-77.518;2023-06-10T15:30:14;31;31;
65012;PMS5003;51715;39.432;-77.518;2023-06-10T15:32:42;33;31;
65012;PMS5003;51715;39.432;-77.518;2023-06-10T15:35:11;40;39;
65012;PMS5003;51715;39.432;-77.518;2023-06-10T15:37:39;30;26;
65012;PMS5003;51715;39.432;-77.518;2023-06-10T15:40:07;32;32;
65012;PMS5003;51715;39.432;-77.518;2023-06-10T15:42:35;37;34;
65012;PMS5003;51715;39.432;-77.518;2023-06-10T15:45:04;34;31;
65012;PMS5003;51715;39.432;-77.518;2023-06-10T15:47:33;36;34;
65012;PMS5003;51715;39.432;-77.518;2023-06-10T15:50:01;35;33;
65012;PMS5003;51715;39.432;-77.518;2023-06-10T15:52:31;39;38;
65012;PMS5003;51715;39.432;-77.518;2023-06-10T15:54:58;41;38;
65012;PMS5003;51715;39.432;-77.518;2023-06-10T15:57:27;39;38;
65012;PMS5003;51715;39.432;-77.518;2023-06-10T15:59:55;37;37;
65012;PMS5003;51715;39.432;-77.518;2023-06-10T16:02:24;41;40;
65012;PMS5003;51715;39.432;-77.518;2023-06-10T16:04:52;33;30;
65012;PMS5003;51715;39.432;-77.518;2023-06-10T16:07:20;36;35;
65012;PMS5003;51715;39.432;-77.518;2023-06-10T16:09:48;37;35;
65012;PMS5003;51715;39.432;-77.518;2023-06-10T16:12:16;30;30;
65012;PMS5003;51715;39.432;-77.518;2023-06-10T16:14:45;34;34;
65012;PMS5003;51715;39.432;-77.518;2023-06-10T16:17:12;33;33;